»·PEaware :: N122AJ KTNP-L70

N122AJ :: KTNP-L70

FLIGHT INFORMATION

Flight Status: Arrived
Operator: Privately registered:
United States
More flights under this callsign
Pilot: Andrew J. (13363)
Aircraft: CESSNA 172 SKYHAWK
(C172)
More flights by this aircraft type
Origin: KTNP Twentynine Palms
United States
Destination: L70 Agua Dulce
United States
More flights between these airports :: More routes between these airports
Route: +
File this flight plan on PilotEdge
Remarks:
Altitude:
(Current/Filed)
4,500ft
Speed:
(Current/Filed)
0kts
Departed: 13-Aug-17 08:29 PM
Arrived: 13-Aug-17 09:50 PM
Distance/Time
Traveled:
120nm/1:21
Distance/Time
To Go:
Arrived

Flight Plot

Page will automatically refresh every two minutes.

Flight plan parsing failed; only flown route is shown


Map Options




Map Legend


Flown Route
Filed Route
Departure Airport
Arrival Airport
Navaid (VOR, NDB)
Fix

Horizontal Profiles

Position Reports

Time Latitude Longitude Heading Altitude Ground
Speed
13-Aug-17 20:31 34.216425 -116.242348 262 4993ft 87kts
13-Aug-17 20:32 34.213787 -116.270686 262 5453ft 83kts
13-Aug-17 20:33 34.211030 -116.299018 262 5963ft 89kts
13-Aug-17 20:34 34.208720 -116.330559 270 6388ft 95kts
13-Aug-17 20:35 34.209988 -116.362378 271 6890ft 95kts
13-Aug-17 20:36 34.213621 -116.393236 296 7377ft 97kts
13-Aug-17 20:37 34.222428 -116.423349 278 7872ft 95kts
13-Aug-17 20:38 34.227129 -116.454504 278 8362ft 94kts
13-Aug-17 20:39 34.231930 -116.485437 279 8836ft 95kts
13-Aug-17 20:40 34.236860 -116.517171 279 9248ft 97kts
13-Aug-17 20:41 34.242066 -116.550671 279 9556ft 102kts
13-Aug-17 20:42 34.247131 -116.583112 279 10020ft 96kts
13-Aug-17 20:43 34.252063 -116.614884 279 10370ft 103kts
13-Aug-17 20:44 34.257446 -116.650213 278 10353ft 109kts
13-Aug-17 20:45 34.259932 -116.672006 276 10349ft 108kts
13-Aug-17 20:46 34.262864 -116.706116 274 10270ft 106kts
13-Aug-17 20:47 34.263922 -116.739474 269 9739ft 108kts
13-Aug-17 20:48 34.263984 -116.775599 268 8567ft 108kts
13-Aug-17 20:49 34.264172 -116.808647 268 7652ft 91kts
13-Aug-17 20:50 34.263898 -116.837481 269 7005ft 77kts
13-Aug-17 20:51 34.263617 -116.856254 227 6751ft 23kts
13-Aug-17 20:52 34.263192 -116.858306 266 6751ft 0kts
13-Aug-17 20:53 34.262857 -116.859467 321 6751ft 0kts
13-Aug-17 20:54 34.262857 -116.859467 321 6751ft 0kts
13-Aug-17 20:55 34.262857 -116.859467 321 6751ft 0kts
13-Aug-17 20:57 34.262862 -116.859472 317 6751ft 0kts
13-Aug-17 20:58 34.263209 -116.863385 268 6751ft 17kts
13-Aug-17 20:59 34.263211 -116.865523 57 6751ft 0kts
13-Aug-17 21:00 34.263764 -116.863192 89 6751ft 49kts
13-Aug-17 21:01 34.265315 -116.835090 78 7241ft 91kts
13-Aug-17 21:02 34.280367 -116.814547 356 7895ft 85kts
13-Aug-17 21:03 34.295961 -116.826752 276 8533ft 75kts
13-Aug-17 21:04 34.311559 -116.843407 325 9131ft 83kts
13-Aug-17 21:05 34.330352 -116.859288 315 9707ft 83kts
13-Aug-17 21:06 34.347964 -116.877446 310 10194ft 83kts
13-Aug-17 21:07 34.365740 -116.895455 316 10659ft 84kts
13-Aug-17 21:08 34.387968 -116.917252 316 10677ft 114kts
13-Aug-17 21:09 34.413483 -116.942836 316 10384ft 123kts
13-Aug-17 21:10 34.438470 -116.967678 316 10352ft 109kts
13-Aug-17 21:11 34.447167 -116.999462 279 10446ft 99kts
13-Aug-17 21:12 34.448459 -117.033560 271 10468ft 104kts
13-Aug-17 21:13 34.449590 -117.068942 271 10478ft 105kts
13-Aug-17 21:14 34.450668 -117.104574 271 10488ft 105kts
13-Aug-17 21:15 34.451691 -117.140157 271 10496ft 105kts
13-Aug-17 21:16 34.452692 -117.175461 271 10520ft 104kts
13-Aug-17 21:17 34.453642 -117.210567 271 10527ft 105kts
13-Aug-17 21:18 34.454638 -117.246127 271 10528ft 105kts
13-Aug-17 21:19 34.455664 -117.281639 271 10530ft 105kts
13-Aug-17 21:20 34.456724 -117.317198 271 10531ft 105kts
13-Aug-17 21:21 34.457816 -117.352774 272 10533ft 105kts
13-Aug-17 21:22 34.458928 -117.388255 272 10534ft 105kts
13-Aug-17 21:23 34.460038 -117.423462 272 10533ft 105kts
13-Aug-17 21:24 34.461157 -117.458775 272 10533ft 105kts
13-Aug-17 21:25 34.462283 -117.494153 272 10533ft 105kts
13-Aug-17 21:26 34.463417 -117.529581 272 10533ft 105kts
13-Aug-17 21:27 34.464564 -117.565255 272 10533ft 105kts
13-Aug-17 21:28 34.465711 -117.600789 272 10533ft 105kts
13-Aug-17 21:29 34.466854 -117.636384 272 10531ft 106kts
13-Aug-17 21:30 34.467775 -117.665111 273 10532ft 106kts
13-Aug-17 21:31 34.471116 -117.700601 275 10530ft 106kts
13-Aug-17 21:32 34.474471 -117.736095 275 10528ft 106kts
13-Aug-17 21:33 34.477829 -117.771808 275 10526ft 106kts
13-Aug-17 21:34 34.481152 -117.807310 275 10524ft 106kts
13-Aug-17 21:35 34.484471 -117.842949 275 10522ft 106kts
13-Aug-17 21:36 34.487328 -117.873587 275 10522ft 106kts
13-Aug-17 21:37 34.490757 -117.910195 275 10220ft 118kts
13-Aug-17 21:38 34.494499 -117.949234 275 9535ft 116kts
13-Aug-17 21:39 34.498278 -117.987003 275 8852ft 110kts
13-Aug-17 21:40 34.501200 -118.015051 275 8440ft 108kts
13-Aug-17 21:41 34.504424 -118.045361 276 8039ft 111kts
13-Aug-17 21:42 34.508361 -118.081511 276 7561ft 111kts
13-Aug-17 21:43 34.512560 -118.118537 276 7069ft 111kts
13-Aug-17 21:43 34.516248 -118.149458 276 6656ft 112kts
13-Aug-17 21:44 34.523146 -118.185514 282 6263ft 107kts
13-Aug-17 21:46 34.532419 -118.225169 282 5889ft 104kts
13-Aug-17 21:47 34.540530 -118.258662 282 5614ft 101kts
13-Aug-17 21:48 34.536607 -118.287815 228 5467ft 94kts
13-Aug-17 21:49 34.517240 -118.308940 218 5294ft 94kts
13-Aug-17 21:49 34.498957 -118.304330 110 4936ft 111kts
13-Aug-17 21:50 34.510447 -118.271921 24 3893ft 103kts
13-Aug-17 21:51 34.519445 -118.285781 238 3463ft 70kts
13-Aug-17 21:52 34.509409 -118.303673 229 2817ft 72kts
13-Aug-17 21:53 34.503280 -118.314018 319 2663ft 5kts
13-Aug-17 21:54 34.502752 -118.315392 233 2663ft 0kts
13-Aug-17 21:55 34.502752 -118.315392 233 2663ft 0kts
13-Aug-17 21:56 34.502752 -118.315392 233 2663ft 0kts
13-Aug-17 21:57 34.502752 -118.315392 233 2663ft 0kts
13-Aug-17 21:58 34.502752 -118.315392 233 2663ft 0kts

Navigation Log

Ident Type
Flight plan parsing failed, navigation log unavailable